Spring Grove, Indiana
Current Conditions -  °F | °C
As of 3:35 AM on Monday 24 Nov 2014 (Local Time) from KVES Reporting Station
Drizzle Drizzle  
Wind Chill: 55°   Ceiling: 900
Heat Index: 55°   Visibility: 4mi
Dew Point: 55°   Wind: 15mph
Humidity: 100%   Direction: 220°SW
Pressure: 29.25"   Gusts: 29mph
Location:  39.8311°N, 84.8879°W
Report Text: KVES 240835Z AUTO 22013G25KT 4SM -DZ OVC009 13/13 A2925 RMK AO2 P0001
Loading
Personal Weather Stations






























Interactive Weather Map New forecast layout! Learn more

10-Day Weather Forecast

Advertisements
Track Severe Weather on mobile